createdAt,value
2018-09-21T00:00:04.231Z,16.66
2018-09-21T00:01:04.162Z,16.59
2018-09-21T00:02:56.981Z,16.51
2018-09-21T00:03:56.915Z,16.57
2018-09-21T00:05:49.691Z,16.54
2018-09-21T00:06:49.618Z,16.54
2018-09-21T00:08:42.383Z,16.42
2018-09-21T00:09:42.321Z,16.44
2018-09-21T00:11:35.099Z,16.47
2018-09-21T00:12:35.020Z,16.42
2018-09-21T00:14:27.789Z,16.41
2018-09-21T00:15:27.719Z,16.40
2018-09-21T00:17:20.507Z,16.32
2018-09-21T00:18:20.441Z,16.30
2018-09-21T00:20:13.223Z,16.29
2018-09-21T00:21:13.149Z,16.27
2018-09-21T00:23:05.929Z,16.29
2018-09-21T00:24:05.867Z,16.29
2018-09-21T00:25:58.651Z,16.27
2018-09-21T00:26:58.579Z,16.25
2018-09-21T00:28:51.358Z,16.34
2018-09-21T00:29:51.296Z,16.40
2018-09-21T00:31:44.069Z,16.33
2018-09-21T00:32:43.994Z,16.32
2018-09-21T00:34:36.768Z,16.29
2018-09-21T00:35:36.693Z,16.23
2018-09-21T00:37:29.452Z,16.14
2018-09-21T00:38:29.388Z,16.17
2018-09-21T00:40:22.183Z,16.18
2018-09-21T00:41:22.103Z,16.17
2018-09-21T00:43:14.864Z,16.17
2018-09-21T00:44:14.800Z,16.17
2018-09-21T00:46:07.590Z,16.29
2018-09-21T00:47:07.509Z,16.26
2018-09-21T00:49:00.271Z,16.26
2018-09-21T00:50:00.211Z,16.17
2018-09-21T00:51:53.026Z,16.17
2018-09-21T00:52:52.935Z,16.06
2018-09-21T00:54:45.728Z,16.22
2018-09-21T00:55:45.653Z,16.08
2018-09-21T00:57:38.415Z,16.06
2018-09-21T00:58:38.350Z,15.96
2018-09-21T01:00:31.130Z,16.10
2018-09-21T01:01:31.060Z,16.06
2018-09-21T01:03:23.814Z,16.11
2018-09-21T01:04:23.752Z,16.01
2018-09-21T01:06:16.532Z,16.03
2018-09-21T01:07:16.458Z,15.98
2018-09-21T01:09:09.223Z,16.07
2018-09-21T01:10:09.164Z,16.03
2018-09-21T01:12:01.967Z,16.06
2018-09-21T01:13:01.892Z,16.03
2018-09-21T01:14:54.723Z,16.01
2018-09-21T01:15:54.613Z,16.01
2018-09-21T01:17:47.431Z,16.13
2018-09-21T01:18:47.352Z,16.07
2018-09-21T01:20:40.139Z,16.06
2018-09-21T01:21:40.054Z,16.01
2018-09-21T01:23:32.818Z,15.96
2018-09-21T01:24:32.762Z,16.03
2018-09-21T01:26:25.528Z,16.13
2018-09-21T01:27:25.459Z,16.04
2018-09-21T01:29:18.215Z,16.16
2018-09-21T01:30:18.154Z,16.10
2018-09-21T01:32:10.939Z,16.07
2018-09-21T01:33:10.856Z,16.16
2018-09-21T01:35:03.620Z,16.32
2018-09-21T01:36:03.550Z,16.29
2018-09-21T01:37:56.347Z,16.27
2018-09-21T01:38:56.266Z,16.30
2018-09-21T01:40:49.047Z,16.27
2018-09-21T01:41:48.972Z,16.23
2018-09-21T01:43:41.772Z,16.22
2018-09-21T01:44:41.702Z,16.27
2018-09-21T01:46:34.483Z,16.36
2018-09-21T01:47:34.411Z,16.45
2018-09-21T01:49:27.161Z,16.50
2018-09-21T01:50:27.156Z,16.44
2018-09-21T01:52:19.892Z,16.62
2018-09-21T01:53:19.815Z,16.73
2018-09-21T01:55:12.586Z,16.88
2018-09-21T01:56:12.522Z,16.95
2018-09-21T01:58:05.320Z,17.10
2018-09-21T01:59:05.251Z,17.10
2018-09-21T02:00:58.082Z,17.22
2018-09-21T02:01:58.010Z,17.20
2018-09-21T02:03:50.772Z,17.30
2018-09-21T02:04:50.714Z,17.33
2018-09-21T02:06:43.482Z,17.45
2018-09-21T02:07:43.406Z,17.53
2018-09-21T02:09:36.220Z,17.53
2018-09-21T02:10:36.108Z,17.54
2018-09-21T02:12:28.879Z,17.54
2018-09-21T02:13:28.804Z,17.58
2018-09-21T02:15:21.568Z,17.62
2018-09-21T02:16:21.505Z,17.74
2018-09-21T02:18:14.291Z,17.74
2018-09-21T02:19:14.219Z,17.77
2018-09-21T02:21:07.007Z,17.84
2018-09-21T02:22:06.929Z,17.80
2018-09-21T02:23:59.688Z,17.77
2018-09-21T02:24:59.627Z,17.94
2018-09-21T02:26:52.403Z,18.14
2018-09-21T02:27:52.329Z,18.17
2018-09-21T02:29:45.101Z,18.31
2018-09-21T02:30:45.033Z,18.39
2018-09-21T02:32:37.814Z,18.36
2018-09-21T02:33:37.738Z,18.38
2018-09-21T02:35:30.509Z,18.44
2018-09-21T02:36:30.441Z,18.44
2018-09-21T02:38:23.215Z,18.53
2018-09-21T02:39:23.141Z,18.39
2018-09-21T02:41:15.992Z,18.46
2018-09-21T02:42:15.911Z,18.51
2018-09-21T02:44:08.673Z,18.36
2018-09-21T02:45:08.613Z,18.32
2018-09-21T02:47:01.380Z,18.51
2018-09-21T02:48:01.310Z,18.53
2018-09-21T02:49:54.080Z,18.53
2018-09-21T02:50:54.014Z,18.42
2018-09-21T02:52:46.784Z,18.36
2018-09-21T02:53:46.710Z,18.39
2018-09-21T02:55:39.476Z,18.49
2018-09-21T02:56:39.410Z,18.49
2018-09-21T02:58:32.182Z,18.64
2018-09-21T02:59:32.108Z,18.60
2018-09-21T03:01:24.913Z,18.78
2018-09-21T03:02:24.832Z,18.71
2018-09-21T03:04:17.588Z,18.84
2018-09-21T03:05:17.527Z,18.86
2018-09-21T03:07:10.324Z,18.90
2018-09-21T03:08:10.246Z,18.84
2018-09-21T03:10:03.007Z,18.76
2018-09-21T03:11:02.949Z,18.71
2018-09-21T03:12:55.720Z,18.69
2018-09-21T03:13:55.648Z,18.69
2018-09-21T03:15:48.464Z,18.83
2018-09-21T03:16:48.405Z,18.69
2018-09-21T03:18:41.221Z,18.79
2018-09-21T03:19:41.152Z,18.90
2018-09-21T03:21:33.965Z,18.69
2018-09-21T03:22:33.886Z,18.83
2018-09-21T03:24:26.646Z,18.76
2018-09-21T03:25:26.586Z,18.74
2018-09-21T03:27:19.373Z,18.78
2018-09-21T03:28:19.300Z,18.71
2018-09-21T03:30:12.069Z,18.76
2018-09-21T03:31:11.998Z,18.82
2018-09-21T03:33:04.774Z,18.78
2018-09-21T03:34:04.698Z,18.74
2018-09-21T03:35:57.508Z,18.83
2018-09-21T03:36:57.449Z,18.87
2018-09-21T03:38:50.221Z,18.79
2018-09-21T03:39:50.147Z,18.76
2018-09-21T03:41:42.920Z,18.84
2018-09-21T03:42:42.845Z,18.86
2018-09-21T03:44:35.605Z,18.79
2018-09-21T03:45:35.543Z,18.76
2018-09-21T03:47:28.324Z,18.94
2018-09-21T03:48:28.251Z,18.87
2018-09-21T03:50:21.014Z,18.86
2018-09-21T03:51:20.949Z,18.93
2018-09-21T03:53:13.719Z,18.83
2018-09-21T03:54:13.647Z,18.76
2018-09-21T03:56:06.417Z,18.84
2018-09-21T03:57:06.353Z,18.86
2018-09-21T03:58:59.127Z,18.94
2018-09-21T03:59:59.052Z,18.90
2018-09-21T04:01:51.844Z,18.83
2018-09-21T04:02:51.766Z,18.91
2018-09-21T04:04:44.533Z,18.99
2018-09-21T04:05:44.483Z,18.96
2018-09-21T04:07:37.264Z,18.94
2018-09-21T04:08:37.177Z,18.89
2018-09-21T04:10:29.932Z,18.89
2018-09-21T04:11:29.876Z,18.89
2018-09-21T04:13:22.674Z,18.74
2018-09-21T04:14:22.574Z,18.82
2018-09-21T04:16:15.345Z,18.79
2018-09-21T04:17:15.277Z,18.79
2018-09-21T04:19:08.057Z,18.79
2018-09-21T04:20:07.983Z,18.84
2018-09-21T04:22:00.763Z,18.84
2018-09-21T04:23:00.785Z,18.82
2018-09-21T04:24:53.475Z,18.79
2018-09-21T04:25:53.399Z,18.86
2018-09-21T04:27:46.175Z,18.91
2018-09-21T04:28:46.102Z,18.89
2018-09-21T04:30:38.883Z,18.90
2018-09-21T04:31:38.810Z,18.87
2018-09-21T04:33:31.583Z,18.94
2018-09-21T04:34:31.523Z,18.97
2018-09-21T04:36:24.305Z,18.97
2018-09-21T04:37:24.238Z,18.87
2018-09-21T04:39:17.020Z,18.94
2018-09-21T04:40:16.940Z,19.01
2018-09-21T04:42:09.764Z,18.97
2018-09-21T04:43:09.701Z,19.07
2018-09-21T04:45:02.501Z,19.17
2018-09-21T04:46:02.403Z,19.02
2018-09-21T04:47:55.185Z,19.25
2018-09-21T04:48:55.110Z,19.27
2018-09-21T04:50:47.891Z,19.39
2018-09-21T04:51:47.835Z,19.39
2018-09-21T04:53:40.614Z,19.34
2018-09-21T04:54:40.540Z,19.40
2018-09-21T04:56:33.304Z,19.39
2018-09-21T04:57:33.246Z,19.38
2018-09-21T04:59:26.016Z,19.39
2018-09-21T05:00:25.943Z,19.47
2018-09-21T05:02:18.712Z,19.39
2018-09-21T05:03:18.652Z,19.35
2018-09-21T05:05:11.434Z,19.34
2018-09-21T05:06:11.364Z,19.35
2018-09-21T05:08:04.145Z,19.49
2018-09-21T05:09:04.073Z,19.47
2018-09-21T05:10:56.865Z,19.60
2018-09-21T05:11:56.799Z,19.58
2018-09-21T05:13:49.632Z,19.62
2018-09-21T05:14:49.502Z,19.75
2018-09-21T05:16:42.279Z,19.89
2018-09-21T05:17:42.216Z,19.98
2018-09-21T05:19:35.015Z,20.15
2018-09-21T05:20:34.944Z,20.20
2018-09-21T05:22:27.719Z,20.41
2018-09-21T05:23:27.657Z,20.46
2018-09-21T05:25:20.445Z,20.57
2018-09-21T05:26:20.369Z,20.66
2018-09-21T05:28:13.157Z,20.64
2018-09-21T05:29:13.084Z,20.76
2018-09-21T05:31:05.852Z,20.75
2018-09-21T05:32:05.789Z,20.75
2018-09-21T05:33:58.612Z,20.85
2018-09-21T05:34:58.550Z,20.87
2018-09-21T05:36:51.259Z,20.90
2018-09-21T05:37:51.202Z,20.91
2018-09-21T05:39:43.976Z,20.93
2018-09-21T05:40:43.913Z,21.00
2018-09-21T05:42:36.709Z,21.12
2018-09-21T05:43:36.637Z,21.12
2018-09-21T05:45:29.473Z,21.34
2018-09-21T05:46:29.395Z,21.37
2018-09-21T05:48:22.182Z,21.43
2018-09-21T05:49:22.112Z,21.48
2018-09-21T05:51:14.875Z,21.59
2018-09-21T05:52:14.815Z,21.64
2018-09-21T05:54:07.597Z,21.66
2018-09-21T05:55:07.521Z,21.68
2018-09-21T05:57:00.292Z,21.75
2018-09-21T05:58:00.233Z,21.86
2018-09-21T05:59:53.012Z,21.94
2018-09-21T06:00:52.941Z,22.04
2018-09-21T06:02:45.714Z,22.09
2018-09-21T06:03:45.651Z,22.12
2018-09-21T06:05:38.430Z,22.12
2018-09-21T06:06:38.354Z,22.30
2018-09-21T06:08:31.140Z,22.24
2018-09-21T06:09:31.081Z,22.35
2018-09-21T06:11:23.841Z,22.42
2018-09-21T06:12:23.801Z,22.46
2018-09-21T06:14:16.553Z,22.48
2018-09-21T06:15:16.481Z,22.35
2018-09-21T06:17:09.256Z,22.41
2018-09-21T06:18:09.193Z,22.56
2018-09-21T06:20:11.934Z,22.72
2018-09-21T06:21:01.996Z,22.85
2018-09-21T06:22:54.764Z,23.12
2018-09-21T06:23:54.696Z,23.25
2018-09-21T06:25:47.475Z,23.45
2018-09-21T06:26:47.408Z,23.49
2018-09-21T06:28:40.188Z,23.75
2018-09-21T06:29:40.113Z,23.79
2018-09-21T06:31:32.963Z,23.97
2018-09-21T06:32:32.890Z,24.26
2018-09-21T06:34:25.667Z,24.71
2018-09-21T06:35:25.593Z,25.04
2018-09-21T06:37:18.370Z,25.83
2018-09-21T06:38:18.305Z,26.12
2018-09-21T06:40:11.098Z,26.46
2018-09-21T06:41:11.042Z,26.53
2018-09-21T06:43:03.806Z,26.50
2018-09-21T06:44:03.745Z,26.49
2018-09-21T06:45:56.524Z,26.51
2018-09-21T06:46:56.456Z,26.76
2018-09-21T06:48:49.240Z,26.46
2018-09-21T06:49:49.187Z,26.61
2018-09-21T06:51:41.938Z,26.31
2018-09-21T06:52:41.880Z,26.50
2018-09-21T06:54:34.684Z,26.28
2018-09-21T06:55:34.603Z,26.27
2018-09-21T06:57:27.387Z,25.96
2018-09-21T06:58:27.326Z,25.98
2018-09-21T07:00:20.117Z,25.96
2018-09-21T07:01:20.092Z,26.08
2018-09-21T07:03:12.827Z,26.00
2018-09-21T07:04:12.770Z,26.29
2018-09-21T07:06:05.553Z,26.87
2018-09-21T07:07:05.482Z,27.18
2018-09-21T07:08:58.306Z,27.02
2018-09-21T07:09:58.245Z,26.94
2018-09-21T07:11:51.005Z,26.31
2018-09-21T07:12:50.953Z,26.00
2018-09-21T07:14:43.726Z,25.69
2018-09-21T07:15:43.661Z,25.72
2018-09-21T07:17:36.436Z,25.41
2018-09-21T07:18:36.371Z,25.26
2018-09-21T07:20:29.164Z,25.04
2018-09-21T07:21:29.091Z,25.05
2018-09-21T07:23:21.909Z,24.98
2018-09-21T07:24:21.854Z,25.04
2018-09-21T07:26:14.634Z,25.19
2018-09-21T07:27:14.559Z,25.17
2018-09-21T07:29:07.349Z,24.99
2018-09-21T07:30:07.283Z,25.01
2018-09-21T07:32:00.053Z,25.01
2018-09-21T07:32:59.996Z,25.04
2018-09-21T07:34:52.784Z,24.90
2018-09-21T07:35:52.709Z,24.87
2018-09-21T07:37:45.486Z,24.79
2018-09-21T07:38:45.426Z,24.74
2018-09-21T07:40:38.221Z,25.19
2018-09-21T07:41:38.153Z,25.66
2018-09-21T07:43:30.953Z,26.12
2018-09-21T07:44:30.937Z,26.54
2018-09-21T07:46:23.648Z,27.59
2018-09-21T07:47:23.573Z,27.90
2018-09-21T07:49:16.369Z,28.64
2018-09-21T07:50:16.308Z,28.87
2018-09-21T07:52:09.083Z,29.39
2018-09-21T07:53:09.023Z,29.47
2018-09-21T07:55:01.830Z,30.30
2018-09-21T07:56:01.761Z,30.79
2018-09-21T07:57:54.539Z,31.03
2018-09-21T07:58:54.480Z,31.16
2018-09-21T08:00:47.281Z,31.67
2018-09-21T08:01:47.211Z,31.47
2018-09-21T08:03:40.015Z,31.92
2018-09-21T08:04:39.960Z,31.90
2018-09-21T08:06:32.789Z,31.59
2018-09-21T08:07:32.715Z,31.88
2018-09-21T08:09:25.536Z,32.13
2018-09-21T08:10:25.459Z,32.13
2018-09-21T08:12:18.265Z,31.91
2018-09-21T08:13:18.214Z,31.97
2018-09-21T08:15:11.016Z,31.62
2018-09-21T08:16:10.955Z,31.75
2018-09-21T08:18:03.766Z,31.42
2018-09-21T08:19:03.715Z,31.71
2018-09-21T08:20:56.517Z,32.19
2018-09-21T08:21:56.461Z,31.97
2018-09-21T08:23:49.260Z,31.09
2018-09-21T08:24:49.214Z,30.94
2018-09-21T08:26:42.051Z,31.18
2018-09-21T08:27:41.953Z,31.67
2018-09-21T08:29:34.741Z,32.19
2018-09-21T08:30:34.691Z,32.40
2018-09-21T08:32:27.480Z,32.77
2018-09-21T08:33:27.415Z,32.78
2018-09-21T08:35:20.224Z,32.71
2018-09-21T08:36:20.161Z,32.69
2018-09-21T08:38:12.944Z,32.63
2018-09-21T08:39:12.902Z,32.77
2018-09-21T08:41:05.718Z,32.85
2018-09-21T08:42:05.633Z,32.84
2018-09-21T08:43:58.434Z,32.77
2018-09-21T08:44:58.389Z,32.93
2018-09-21T08:46:51.187Z,33.44
2018-09-21T08:47:51.125Z,33.45
2018-09-21T08:49:43.939Z,33.35
2018-09-21T08:50:43.889Z,33.66
2018-09-21T08:52:36.700Z,33.20
2018-09-21T08:53:36.641Z,33.38
2018-09-21T08:55:29.519Z,32.91
2018-09-21T08:56:29.388Z,32.66
2018-09-21T08:58:22.189Z,31.90
2018-09-21T08:59:22.143Z,31.95
2018-09-21T09:01:14.951Z,32.09
2018-09-21T09:02:14.899Z,32.10
2018-09-21T09:04:07.698Z,32.77
2018-09-21T09:05:07.648Z,32.65
2018-09-21T09:07:00.447Z,32.78
2018-09-21T09:08:00.384Z,32.66
2018-09-21T09:09:53.192Z,32.93
2018-09-21T09:10:53.177Z,32.93
2018-09-21T09:12:45.952Z,32.66
2018-09-21T09:13:45.880Z,32.99
2018-09-21T09:15:38.708Z,32.99
2018-09-21T09:16:38.638Z,32.80
2018-09-21T09:18:31.546Z,32.93
2018-09-21T09:19:31.496Z,33.38
2018-09-21T09:21:24.306Z,33.66
2018-09-21T09:22:24.248Z,33.34
2018-09-21T09:24:17.130Z,33.31
2018-09-21T09:25:16.985Z,33.63
2018-09-21T09:27:09.805Z,34.03
2018-09-21T09:28:09.742Z,34.05
2018-09-21T09:30:02.605Z,33.56
2018-09-21T09:31:02.489Z,33.77
2018-09-21T09:32:55.299Z,33.81
2018-09-21T09:33:55.238Z,33.90
2018-09-21T09:35:48.049Z,33.05
2018-09-21T09:36:48.005Z,32.65
2018-09-21T09:38:40.779Z,32.84
2018-09-21T09:39:40.723Z,32.88
2018-09-21T09:41:33.523Z,32.69
2018-09-21T09:42:33.510Z,32.41
2018-09-21T09:44:26.294Z,32.58
2018-09-21T09:45:26.246Z,32.61
2018-09-21T09:47:19.096Z,32.61
2018-09-21T09:48:19.059Z,32.41
2018-09-21T09:50:11.791Z,32.07
2018-09-21T09:51:11.786Z,32.28
2018-09-21T09:53:04.554Z,32.19
2018-09-21T09:54:04.506Z,32.09
2018-09-21T09:55:57.296Z,32.19
2018-09-21T09:56:57.243Z,32.16
2018-09-21T09:58:50.025Z,31.79
2018-09-21T09:59:49.975Z,31.69
2018-09-21T10:01:42.804Z,31.45
2018-09-21T10:02:42.744Z,31.31
2018-09-21T10:04:35.550Z,31.71
2018-09-21T10:05:35.492Z,31.90
2018-09-21T10:07:28.294Z,31.82
2018-09-21T10:08:28.236Z,31.57
2018-09-21T10:10:21.089Z,31.47
2018-09-21T10:11:21.007Z,31.28
2018-09-21T10:13:13.868Z,31.56
2018-09-21T10:14:13.816Z,31.82
2018-09-21T10:16:06.588Z,31.94
2018-09-21T10:17:06.525Z,31.84
2018-09-21T10:18:59.319Z,31.16
2018-09-21T10:19:59.268Z,31.19
2018-09-21T10:21:52.059Z,31.40
2018-09-21T10:22:51.998Z,31.52
2018-09-21T10:24:44.797Z,31.41
2018-09-21T10:25:44.740Z,31.03
2018-09-21T10:27:37.636Z,30.82
2018-09-21T10:28:37.756Z,30.83
2018-09-21T10:30:30.311Z,30.82
2018-09-21T10:31:30.235Z,30.70
2018-09-21T10:33:23.073Z,30.59
2018-09-21T10:34:22.951Z,30.60
2018-09-21T10:36:15.740Z,30.88
2018-09-21T10:37:15.717Z,30.96
2018-09-21T10:39:08.544Z,31.05
2018-09-21T10:40:08.514Z,31.03
2018-09-21T10:42:01.223Z,31.13
2018-09-21T10:43:01.232Z,31.15
2018-09-21T10:44:53.954Z,31.18
2018-09-21T10:45:53.882Z,31.22
2018-09-21T10:47:46.726Z,31.50
2018-09-21T10:48:46.639Z,31.46
2018-09-21T10:50:39.441Z,31.74
2018-09-21T10:51:39.384Z,31.60
2018-09-21T10:53:32.201Z,31.37
2018-09-21T10:54:32.135Z,31.34
2018-09-21T10:56:24.952Z,31.30
2018-09-21T10:57:24.885Z,31.57
2018-09-21T10:59:17.685Z,31.90
2018-09-21T11:00:17.627Z,32.06
2018-09-21T11:02:10.482Z,32.43
2018-09-21T11:03:10.393Z,32.58
2018-09-21T11:05:03.206Z,32.24
2018-09-21T11:06:03.143Z,32.05
2018-09-21T11:07:55.952Z,31.85
2018-09-21T11:08:55.887Z,31.91
2018-09-21T11:10:48.697Z,31.98
2018-09-21T11:11:48.637Z,31.97
2018-09-21T11:13:41.456Z,31.95
2018-09-21T11:14:41.389Z,31.92
2018-09-21T11:16:34.215Z,31.94
2018-09-21T11:17:34.151Z,31.95
2018-09-21T11:19:26.921Z,32.07
2018-09-21T11:20:26.867Z,31.91
2018-09-21T11:22:19.657Z,31.95
2018-09-21T11:23:19.592Z,31.78
2018-09-21T11:25:12.374Z,31.92
2018-09-21T11:26:12.310Z,31.75
2018-09-21T11:28:05.116Z,31.74
2018-09-21T11:29:05.043Z,31.68
2018-09-21T11:30:56.868Z,31.65
2018-09-21T11:31:56.804Z,31.60
2018-09-21T11:33:48.587Z,31.04
2018-09-21T11:34:48.515Z,30.79
2018-09-21T11:36:40.403Z,30.91
2018-09-21T11:37:40.319Z,30.78
2018-09-21T11:39:32.082Z,30.85
2018-09-21T11:40:32.032Z,30.94
2018-09-21T11:42:23.904Z,31.01
2018-09-21T11:43:23.828Z,31.03
2018-09-21T11:45:15.595Z,31.22
2018-09-21T11:46:15.540Z,31.25
2018-09-21T11:48:07.335Z,31.38
2018-09-21T11:49:07.263Z,31.30
2018-09-21T11:50:59.033Z,31.00
2018-09-21T11:51:58.977Z,31.03
2018-09-21T11:53:50.775Z,31.31
2018-09-21T11:54:50.705Z,31.32
2018-09-21T11:56:42.592Z,31.23
2018-09-21T11:57:42.535Z,31.35
2018-09-21T11:59:34.324Z,31.45
2018-09-21T12:00:34.257Z,31.59
2018-09-21T12:02:26.051Z,31.65
2018-09-21T12:03:25.985Z,31.62
2018-09-21T12:05:17.775Z,31.35
2018-09-21T12:06:17.753Z,31.34
2018-09-21T12:08:09.506Z,31.19
2018-09-21T12:09:09.439Z,31.30
2018-09-21T12:11:01.219Z,31.60
2018-09-21T12:12:01.169Z,31.67
2018-09-21T12:13:52.957Z,31.60
2018-09-21T12:14:52.892Z,31.65
2018-09-21T12:16:44.679Z,31.23
2018-09-21T12:17:44.613Z,31.05
2018-09-21T12:19:36.515Z,31.01
2018-09-21T12:20:36.444Z,30.96
2018-09-21T12:22:28.243Z,31.05
2018-09-21T12:23:28.180Z,30.93
2018-09-21T12:25:19.989Z,31.01
2018-09-21T12:26:19.923Z,31.03
2018-09-21T12:28:11.705Z,31.07
2018-09-21T12:29:11.628Z,31.03
2018-09-21T12:31:03.425Z,31.07
2018-09-21T12:32:03.360Z,31.10
2018-09-21T12:33:55.252Z,31.13
2018-09-21T12:34:55.188Z,31.10
2018-09-21T12:36:46.949Z,31.00
2018-09-21T12:37:46.893Z,31.05
2018-09-21T12:39:38.723Z,30.96
2018-09-21T12:40:38.666Z,30.93
2018-09-21T12:42:30.609Z,30.90
2018-09-21T12:43:30.462Z,30.96
2018-09-21T12:45:22.223Z,30.88
2018-09-21T12:46:22.167Z,30.86
2018-09-21T12:48:14.093Z,30.83
2018-09-21T12:49:14.027Z,30.68
2018-09-21T12:51:05.870Z,30.60
2018-09-21T12:52:05.810Z,30.60
2018-09-21T12:53:57.609Z,30.57
2018-09-21T12:54:57.530Z,30.67
2018-09-21T12:56:49.471Z,30.66
2018-09-21T12:57:49.435Z,30.56
2018-09-21T12:59:41.308Z,30.57
2018-09-21T13:00:41.230Z,30.54
2018-09-21T13:02:33.035Z,30.44
2018-09-21T13:03:32.959Z,30.48
2018-09-21T13:05:24.751Z,30.38
2018-09-21T13:06:24.740Z,30.29
2018-09-21T13:08:16.514Z,30.29
2018-09-21T13:09:16.520Z,30.25
2018-09-21T13:11:08.191Z,30.15
2018-09-21T13:12:08.144Z,30.07
2018-09-21T13:13:59.929Z,30.10
2018-09-21T13:14:59.858Z,30.08
2018-09-21T13:16:51.636Z,30.00
2018-09-21T13:17:51.581Z,29.99
2018-09-21T13:19:43.352Z,29.89
2018-09-21T13:20:43.282Z,29.89
2018-09-21T13:22:35.102Z,29.73
2018-09-21T13:23:35.039Z,29.78
2018-09-21T13:25:26.921Z,29.76
2018-09-21T13:26:26.826Z,29.73
2018-09-21T13:28:18.671Z,29.60
2018-09-21T13:29:18.634Z,29.54
2018-09-21T13:31:11.368Z,29.44
2018-09-21T13:32:11.354Z,29.33
2018-09-21T13:34:03.090Z,29.25
2018-09-21T13:35:03.026Z,29.18
2018-09-21T13:36:54.791Z,29.03
2018-09-21T13:37:54.729Z,28.97
2018-09-21T13:39:46.507Z,28.91
2018-09-21T13:40:46.442Z,28.89
2018-09-21T13:42:38.198Z,28.80
2018-09-21T13:43:38.142Z,28.76
2018-09-21T13:45:29.914Z,28.73
2018-09-21T13:46:29.845Z,28.64
2018-09-21T13:48:21.672Z,28.70
2018-09-21T13:49:21.602Z,28.64
2018-09-21T13:51:13.426Z,28.60
2018-09-21T13:52:13.362Z,28.45
2018-09-21T13:54:05.132Z,28.39
2018-09-21T13:55:05.060Z,28.46
2018-09-21T13:56:56.883Z,28.45
2018-09-21T13:57:56.825Z,28.42
2018-09-21T13:59:48.614Z,28.38
2018-09-21T14:00:48.549Z,28.38
2018-09-21T14:02:40.326Z,28.45
2018-09-21T14:03:40.269Z,28.51
2018-09-21T14:05:32.050Z,28.50
2018-09-21T14:06:31.970Z,28.46
2018-09-21T14:08:23.743Z,28.48
2018-09-21T14:09:23.689Z,28.58
2018-09-21T14:11:15.524Z,28.58
2018-09-21T14:12:15.455Z,28.58
2018-09-21T14:14:07.234Z,28.55
2018-09-21T14:15:07.164Z,28.50
2018-09-21T14:16:58.991Z,28.45
2018-09-21T14:17:58.929Z,28.48
2018-09-21T14:19:50.701Z,28.42
2018-09-21T14:20:50.637Z,28.50
2018-09-21T14:22:42.420Z,28.32
2018-09-21T14:23:42.361Z,28.36
2018-09-21T14:25:34.147Z,28.32
2018-09-21T14:26:34.080Z,28.36
2018-09-21T14:28:25.835Z,28.18
2018-09-21T14:29:25.774Z,28.18
2018-09-21T14:31:17.551Z,28.21
2018-09-21T14:32:17.478Z,28.15
2018-09-21T14:34:09.252Z,28.15
2018-09-21T14:35:09.186Z,28.18
2018-09-21T14:37:00.943Z,28.08
2018-09-21T14:38:00.885Z,27.96
2018-09-21T14:39:52.833Z,26.73
2018-09-21T14:40:52.769Z,26.13
2018-09-21T14:42:44.550Z,24.92
2018-09-21T14:43:44.486Z,24.15
2018-09-21T14:45:36.272Z,23.04
2018-09-21T14:46:36.190Z,22.54
2018-09-21T14:48:28.006Z,21.64
2018-09-21T14:49:27.949Z,21.08
2018-09-21T14:51:20.728Z,20.50
2018-09-21T14:52:20.660Z,20.37
2018-09-21T14:54:12.487Z,20.16
2018-09-21T14:55:12.419Z,20.12
2018-09-21T14:57:04.179Z,19.90
2018-09-21T14:58:04.120Z,19.85
2018-09-21T14:59:56.126Z,19.79
2018-09-21T15:00:56.016Z,19.82
2018-09-21T15:02:47.892Z,19.92
2018-09-21T15:03:47.832Z,19.90
2018-09-21T15:05:39.599Z,19.86
2018-09-21T15:06:39.532Z,19.75
2018-09-21T15:08:31.352Z,19.62
2018-09-21T15:09:31.275Z,19.60
2018-09-21T15:11:23.063Z,19.40
2018-09-21T15:12:22.988Z,19.21
2018-09-21T15:14:14.858Z,18.93
2018-09-21T15:15:14.798Z,18.89
2018-09-21T15:17:06.586Z,18.86
2018-09-21T15:18:06.512Z,18.82
2018-09-21T15:19:58.276Z,18.74
2018-09-21T15:20:58.205Z,18.68
2018-09-21T15:22:50.071Z,18.62
2018-09-21T15:23:50.012Z,18.50
2018-09-21T15:25:41.765Z,18.51
2018-09-21T15:26:41.695Z,18.41
2018-09-21T15:28:33.534Z,18.11
2018-09-21T15:29:33.470Z,18.02
2018-09-21T15:31:25.251Z,17.91
2018-09-21T15:32:25.175Z,17.80
2018-09-21T15:34:17.016Z,17.58
2018-09-21T15:35:16.937Z,17.54
2018-09-21T15:37:08.712Z,17.46
2018-09-21T15:38:08.641Z,17.43
2018-09-21T15:40:00.463Z,17.36
2018-09-21T15:41:00.383Z,17.22
2018-09-21T15:42:52.155Z,17.38
2018-09-21T15:43:52.093Z,17.36
2018-09-21T15:45:43.910Z,17.33
2018-09-21T15:46:43.837Z,17.32
2018-09-21T15:48:35.607Z,17.20
2018-09-21T15:49:35.546Z,17.14
2018-09-21T15:51:27.318Z,17.09
2018-09-21T15:52:27.247Z,17.03
2018-09-21T15:54:19.016Z,16.80
2018-09-21T15:55:18.955Z,16.72
2018-09-21T15:57:10.815Z,16.44
2018-09-21T15:58:10.733Z,16.51
2018-09-21T16:00:02.534Z,16.29
2018-09-21T16:01:02.444Z,16.14
2018-09-21T16:02:54.234Z,15.99
2018-09-21T16:03:54.172Z,15.92
2018-09-21T16:05:45.969Z,15.66
2018-09-21T16:06:45.895Z,15.68
2018-09-21T16:08:37.717Z,15.55
2018-09-21T16:09:37.654Z,15.77
2018-09-21T16:11:29.492Z,15.48
2018-09-21T16:12:29.409Z,15.41
2018-09-21T16:14:21.290Z,15.40
2018-09-21T16:15:21.159Z,15.27
2018-09-21T16:17:12.982Z,15.25
2018-09-21T16:18:12.923Z,15.19
2018-09-21T16:20:05.676Z,15.09
2018-09-21T16:21:05.606Z,15.13
2018-09-21T16:22:58.372Z,15.01
2018-09-21T16:23:58.305Z,15.03
2018-09-21T16:25:51.076Z,14.97
2018-09-21T16:26:51.005Z,14.79
2018-09-21T16:28:43.765Z,14.71
2018-09-21T16:29:43.702Z,14.75
2018-09-21T16:31:36.478Z,14.79
2018-09-21T16:32:36.405Z,14.83
2018-09-21T16:34:29.226Z,14.74
2018-09-21T16:35:29.099Z,14.74
2018-09-21T16:37:21.903Z,14.61
2018-09-21T16:38:21.831Z,14.66
2018-09-21T16:40:14.673Z,14.63
2018-09-21T16:41:14.585Z,14.59
2018-09-21T16:43:07.349Z,14.60
2018-09-21T16:44:07.282Z,14.66
2018-09-21T16:46:00.090Z,14.67
2018-09-21T16:47:00.011Z,14.67
2018-09-21T16:48:52.768Z,14.59
2018-09-21T16:49:52.704Z,14.60
2018-09-21T16:51:45.499Z,14.74
2018-09-21T16:52:45.407Z,14.79
2018-09-21T16:54:38.165Z,14.72
2018-09-21T16:55:38.099Z,14.74
2018-09-21T16:57:30.927Z,14.72
2018-09-21T16:58:30.829Z,14.64
2018-09-21T17:00:23.613Z,14.64
2018-09-21T17:01:23.546Z,14.74
2018-09-21T17:03:16.327Z,14.75
2018-09-21T17:04:16.331Z,14.79
2018-09-21T17:06:09.021Z,14.75
2018-09-21T17:07:08.949Z,14.74
2018-09-21T17:09:01.705Z,14.72
2018-09-21T17:10:01.649Z,14.64
2018-09-21T17:11:54.417Z,14.56
2018-09-21T17:12:54.347Z,14.63
2018-09-21T17:14:47.109Z,14.71
2018-09-21T17:15:47.043Z,14.63
2018-09-21T17:17:39.818Z,14.67
2018-09-21T17:18:39.744Z,14.72
2018-09-21T17:20:32.591Z,14.67
2018-09-21T17:21:32.438Z,14.78
2018-09-21T17:23:25.212Z,14.57
2018-09-21T17:24:25.141Z,14.52
2018-09-21T17:26:17.911Z,14.56
2018-09-21T17:27:17.837Z,14.69
2018-09-21T17:29:10.601Z,14.74
2018-09-21T17:30:10.541Z,14.78
2018-09-21T17:32:03.367Z,14.67
2018-09-21T17:33:03.238Z,14.78
2018-09-21T17:34:56.002Z,14.75
2018-09-21T17:35:55.971Z,14.71
2018-09-21T17:37:48.725Z,14.79
2018-09-21T17:38:48.643Z,14.79
2018-09-21T17:40:41.411Z,14.79
2018-09-21T17:41:41.341Z,14.69
2018-09-21T17:43:34.169Z,14.74
2018-09-21T17:44:34.092Z,14.75
2018-09-21T17:46:26.864Z,14.75
2018-09-21T17:47:26.795Z,14.57
2018-09-21T17:49:19.581Z,14.61
2018-09-21T17:50:19.520Z,14.53
2018-09-21T17:52:12.327Z,14.67
2018-09-21T17:53:12.246Z,14.78
2018-09-21T17:55:05.009Z,14.66
2018-09-21T17:56:04.943Z,14.59
2018-09-21T17:57:57.766Z,14.48
2018-09-21T17:58:57.690Z,14.53
2018-09-21T18:00:50.456Z,14.49
2018-09-21T18:01:50.384Z,14.52
2018-09-21T18:03:43.164Z,14.54
2018-09-21T18:04:43.092Z,14.60
2018-09-21T18:06:35.862Z,14.74
2018-09-21T18:07:35.782Z,14.71
2018-09-21T18:09:28.539Z,14.72
2018-09-21T18:10:28.474Z,14.78
2018-09-21T18:12:21.278Z,14.72
2018-09-21T18:13:21.186Z,14.82
2018-09-21T18:15:13.954Z,14.78
2018-09-21T18:16:13.968Z,14.66
2018-09-21T18:18:06.668Z,14.63
2018-09-21T18:19:06.584Z,14.61
2018-09-21T18:20:59.373Z,14.74
2018-09-21T18:21:59.310Z,14.72
2018-09-21T18:23:52.100Z,14.71
2018-09-21T18:24:52.024Z,14.72
2018-09-21T18:26:44.806Z,14.63
2018-09-21T18:27:44.729Z,14.60
2018-09-21T18:29:37.488Z,14.61